If you wish to contribute or participate in the discussions about articles you are invited to join SKYbrary as a registered user

 Actions

Eindhoven

From SKYbrary Wiki

EHEH /
Revision as of 14:17, 16 April 2010 by Editor1 (talk | contribs)
Airport
ICAO: EHEH
Summary
Name Eindhoven
Region Europe
Territory Netherlands NL.gif
Location Eindhoven, Netherlands
Serving
Coordinates 51° 27' 0.00" N, 5° 22' 30.00" E
Runways
Designator Length Width Surface ROPS
4/22 3000 m9,842.52 ft <br /> 45 m147.638 ft <br /> ASP yes/yes


METAR
Observation EHEH 082155Z AUTO 23005KT 9999 -DZ FEW022 BKN034 BKN038 04/01 Q1021 BLU
Station Eindhoven
Date/Time 08 March 2021 21:55:00
Wind direction 230°
Wind speed 05 kts
Lowest cloud amount few clouds
Temperature 4°C
Dew point 1°C
Humidity 80%
QNH 1021 hPa
Weather condition light drizzle


Eindhoven Airport

ICAO: EHEH IATA: EIN

Description

International airport serving Eindhoven, The Netherlands.

Climatology

Temperate Marine climate/Oceanic climate (Koppen climate classification Cfb). Moderately cool summer and comparatively warm winter with a temperature range of only 14 degrees C. Prevailing south-westerly winds from the Atlantic Ocean.

Maps

Terrain

Loading map...

Airport Layout

Loading map...

Accidents & Serious Incidents at or in vicinity of EHEH